Αναφορές METAR Αεροδρομίων

 

LGTS - THESSALONIKI - GREECE
Ενημερώθηκε: 26/10/2020 21:20
Αίθριος
Αίθριος
 Ανεμος από ΑΝΑ
Ανεμος: ΑΝΑ 11 km/h
Θερμοκρασία: 13°C
Σημείο Δρόσου: 8°C
Υγρασία: 72%
Βαρόμετρο: 1015 hPa
Περίληψη: Αίθριος
Visibility: greater than 10 km
2020/10/26 19:20 LGTS 261920Z 11006KT CAVOK 13/08 Q1015 NOSIG
LGLR - LARTISA - GREECE
Ενημερώθηκε: 26/10/2020 20:50
Αίθριος
Αίθριος
 Ανεμος από calm
Ανεμος: Απνοια
Θερμοκρασία: 13°C
Σημείο Δρόσου: 6°C
Υγρασία: 63%
Βαρόμετρο: 1015 hPa
Περίληψη: Αίθριος
Visibility: greater than 10 km
2020/10/26 18:50 LGLR 261850Z 00000KT CAVOK 13/06 Q1015 BLU
 
LGKZ - KOZANI - GREECE
Ενημερώθηκε: 26/10/2020 21:20

 Ανεμος από Β
Ανεμος: Β 9 km/h
Θερμοκρασία: 10°C
Wind Chill: 9°C
Σημείο Δρόσου: 4°C
Υγρασία: 67%
Βαρόμετρο: 1016 hPa
2020/10/26 19:20 LGKZ 261920Z AUTO 01005KT //// // ////// 10/04 Q1016 RE//
LGKV - KAVALA - GREECE
Ενημερώθηκε: 26/10/2020 21:20
Αίθριος
Αίθριος
 Ανεμος από ΒΑ
Ανεμος: ΒΑ 7 km/h
Θερμοκρασία: 14°C
Σημείο Δρόσου: 12°C
Υγρασία: 88%
Βαρόμετρο: 1014 hPa
Περίληψη: Αίθριος
Visibility: greater than 10 km
2020/10/26 19:20 LGKV 261920Z 05004KT CAVOK 14/12 Q1014
 
LGIO - IOANNINA - GREECE
Ενημερώθηκε: 26/10/2020 21:20

 Ανεμος από calm
Ανεμος: Απνοια
Θερμοκρασία: 10°C
Σημείο Δρόσου: 9°C
Υγρασία: 94%
Βαρόμετρο: 1017 hPa
2020/10/26 19:20 LGIO 261920Z AUTO 00000KT //// // ////// 10/09 Q1017 RE//
LGBL - BOLOS - GREECE
Ενημερώθηκε: 26/10/2020 20:50
Αίθριος
Αίθριος
 Ανεμος από calm
Ανεμος: Απνοια
Θερμοκρασία: 13°C
Σημείο Δρόσου: 6°C
Υγρασία: 63%
Βαρόμετρο: 1015 hPa
Περίληψη: Αίθριος
Visibility: greater than 10 km
2020/10/26 18:50 LGBL 261850Z 00000KT CAVOK 13/06 Q1015
 
LGMT - MITILINI - GREECE
Ενημερώθηκε: 26/10/2020 21:20
Αραιές Νεφώσεις
Αραιές Νεφώσεις
 Ανεμος από varies
Ανεμος: varies 6 km/h
Θερμοκρασία: 18°C
Σημείο Δρόσου: 13°C
Υγρασία: 73%
Βαρόμετρο: 1015 hPa
Clouds: Αραιές Νεφώσεις
Visibility: 10 km
Cloud details: Αραιές Νεφώσεις 762 m
2020/10/26 19:20 LGMT 261920Z VRB03KT 9999 FEW025 18/13 Q1015
LGAV - ATHENS - GREECE
Ενημερώθηκε: 26/10/2020 21:20
Αίθριος
Αίθριος
 Ανεμος από Δ
Ανεμος: Δ 4 km/h
Θερμοκρασία: 13°C
Σημείο Δρόσου: 10°C
Υγρασία: 82%
Βαρόμετρο: 1016 hPa
Περίληψη: Αίθριος
Visibility: greater than 10 km
2020/10/26 19:20 LGAV 261920Z 26002KT CAVOK 13/10 Q1016 NOSIG
 
LGRP - RODOS - GREECE
Ενημερώθηκε: 26/10/2020 21:20
Αραιές Νεφώσεις
Αραιές Νεφώσεις
 Ανεμος από varies
Ανεμος: varies 6 km/h
Θερμοκρασία: 22°C
Σημείο Δρόσου: 18°C
Υγρασία: 78%
Βαρόμετρο: 1013 hPa
Clouds: Αραιές Νεφώσεις
Visibility: 10 km
Cloud details: Αραιές Νεφώσεις 549 m
2020/10/26 19:20 LGRP 261920Z VRB03KT 9999 FEW018 22/18 Q1013 NOSIG
LGIR - HRAKLIO/KRITI - GREECE
Ενημερώθηκε: 26/10/2020 21:20
Αραιές Νεφώσεις
Αραιές Νεφώσεις
 Ανεμος από calm
Ανεμος: Απνοια
Θερμοκρασία: 18°C
Σημείο Δρόσου: 15°C
Υγρασία: 83%
Βαρόμετρο: 1015 hPa
Clouds: Αραιές Νεφώσεις
Visibility: 10 km
Cloud details: Αραιές Νεφώσεις 762 m
2020/10/26 19:20 LGIR 261920Z 00000KT 9999 FEW025 18/15 Q1015 NOSIG
 
LGMK - MIKONOS - GREECE
Ενημερώθηκε: 26/10/2020 20:20
NOT Current
Αίθριος
Αίθριος
 Ανεμος από varies
Ανεμος: varies 6 km/h
Θερμοκρασία: 20°C
Σημείο Δρόσου: 13°C
Υγρασία: 64%
Βαρόμετρο: 1014 hPa
Περίληψη: Αίθριος
Visibility: greater than 10 km
2020/10/26 18:20 LGMK 261820Z VRB03KT CAVOK 20/13 Q1014
LGKR - KERKIRA - GREECE
Ενημερώθηκε: 26/10/2020 21:20
Αραιές Νεφώσεις
Αραιές Νεφώσεις
 Ανεμος από Δ
Ανεμος: Δ 7 km/h
Θερμοκρασία: 15°C
Σημείο Δρόσου: 14°C
Υγρασία: 94%
Βαρόμετρο: 1015 hPa
Clouds: Αραιές Νεφώσεις
Visibility: 10 km
Cloud details: Αραιές Νεφώσεις 762 m
2020/10/26 19:20 LGKR 261920Z 26004KT 9999 FEW025 15/14 Q1015 NOSIG